sensor_id;sensor_type;location;lat;lon;timestamp;P1;durP1;ratioP1;P2;durP2;ratioP2
757;SDS011;363;48.764;9.172;2023-02-22T00:00:58;8.50;;;5.30;;
757;SDS011;363;48.764;9.172;2023-02-22T00:03:31;8.63;;;5.75;;
757;SDS011;363;48.764;9.172;2023-02-22T00:05:58;8.80;;;7.30;;
757;SDS011;363;48.764;9.172;2023-02-22T00:08:25;6.47;;;5.10;;
757;SDS011;363;48.764;9.172;2023-02-22T00:10:54;7.57;;;4.97;;
757;SDS011;363;48.764;9.172;2023-02-22T00:13:23;5.57;;;4.40;;
757;SDS011;363;48.764;9.172;2023-02-22T00:15:49;9.60;;;5.17;;
757;SDS011;363;48.764;9.172;2023-02-22T00:18:15;7.33;;;5.00;;
757;SDS011;363;48.764;9.172;2023-02-22T00:20:42;7.00;;;5.53;;
757;SDS011;363;48.764;9.172;2023-02-22T00:23:19;7.97;;;5.10;;
757;SDS011;363;48.764;9.172;2023-02-22T00:25:46;8.70;;;5.20;;
757;SDS011;363;48.764;9.172;2023-02-22T00:28:13;6.03;;;5.43;;
757;SDS011;363;48.764;9.172;2023-02-22T00:30:39;5.97;;;4.80;;
757;SDS011;363;48.764;9.172;2023-02-22T00:33:08;8.02;;;6.13;;
757;SDS011;363;48.764;9.172;2023-02-22T00:35:35;10.35;;;5.40;;
757;SDS011;363;48.764;9.172;2023-02-22T00:38:01;7.77;;;5.17;;
757;SDS011;363;48.764;9.172;2023-02-22T00:40:28;7.30;;;4.93;;
757;SDS011;363;48.764;9.172;2023-02-22T00:42:59;6.75;;;5.15;;
757;SDS011;363;48.764;9.172;2023-02-22T00:45:27;9.00;;;4.72;;
757;SDS011;363;48.764;9.172;2023-02-22T00:47:54;7.63;;;5.75;;
757;SDS011;363;48.764;9.172;2023-02-22T00:50:20;7.10;;;5.40;;
757;SDS011;363;48.764;9.172;2023-02-22T00:52:47;7.75;;;4.40;;
757;SDS011;363;48.764;9.172;2023-02-22T00:55:17;9.32;;;4.78;;
757;SDS011;363;48.764;9.172;2023-02-22T00:57:50;9.10;;;5.15;;
757;SDS011;363;48.764;9.172;2023-02-22T01:00:21;5.75;;;5.15;;
757;SDS011;363;48.764;9.172;2023-02-22T01:02:47;6.63;;;5.45;;
757;SDS011;363;48.764;9.172;2023-02-22T01:05:19;6.25;;;5.00;;
757;SDS011;363;48.764;9.172;2023-02-22T01:07:47;6.15;;;4.95;;
757;SDS011;363;48.764;9.172;2023-02-22T01:10:13;5.03;;;4.47;;
757;SDS011;363;48.764;9.172;2023-02-22T01:12:40;7.60;;;4.50;;
757;SDS011;363;48.764;9.172;2023-02-22T01:15:06;6.78;;;4.93;;
757;SDS011;363;48.764;9.172;2023-02-22T01:17:36;5.00;;;4.50;;
757;SDS011;363;48.764;9.172;2023-02-22T01:20:04;7.60;;;4.75;;
757;SDS011;363;48.764;9.172;2023-02-22T01:22:34;8.23;;;5.53;;
757;SDS011;363;48.764;9.172;2023-02-22T01:25:01;6.65;;;5.15;;
757;SDS011;363;48.764;9.172;2023-02-22T01:27:27;7.93;;;5.50;;
757;SDS011;363;48.764;9.172;2023-02-22T01:29:52;6.57;;;4.53;;
757;SDS011;363;48.764;9.172;2023-02-22T01:32:18;9.63;;;5.10;;
757;SDS011;363;48.764;9.172;2023-02-22T01:34:44;5.23;;;4.73;;
757;SDS011;363;48.764;9.172;2023-02-22T01:37:10;7.20;;;4.85;;
757;SDS011;363;48.764;9.172;2023-02-22T01:39:35;7.77;;;5.47;;
757;SDS011;363;48.764;9.172;2023-02-22T01:42:01;6.70;;;4.77;;
757;SDS011;363;48.764;9.172;2023-02-22T01:44:29;5.23;;;4.73;;
757;SDS011;363;48.764;9.172;2023-02-22T01:46:57;8.35;;;5.13;;
757;SDS011;363;48.764;9.172;2023-02-22T01:49:25;8.38;;;4.53;;
757;SDS011;363;48.764;9.172;2023-02-22T01:51:56;6.65;;;5.40;;
757;SDS011;363;48.764;9.172;2023-02-22T01:54:25;6.45;;;5.15;;
757;SDS011;363;48.764;9.172;2023-02-22T01:57:03;6.55;;;4.93;;
757;SDS011;363;48.764;9.172;2023-02-22T01:59:40;6.32;;;4.00;;
757;SDS011;363;48.764;9.172;2023-02-22T02:02:10;6.43;;;4.40;;
757;SDS011;363;48.764;9.172;2023-02-22T02:04:37;5.47;;;4.15;;
757;SDS011;363;48.764;9.172;2023-02-22T02:07:06;7.22;;;4.57;;
757;SDS011;363;48.764;9.172;2023-02-22T02:09:36;5.38;;;4.43;;
757;SDS011;363;48.764;9.172;2023-02-22T02:12:12;5.75;;;4.18;;
757;SDS011;363;48.764;9.172;2023-02-22T02:14:41;6.68;;;4.88;;
757;SDS011;363;48.764;9.172;2023-02-22T02:17:08;6.53;;;4.57;;
757;SDS011;363;48.764;9.172;2023-02-22T02:22:35;8.55;;;4.93;;
757;SDS011;363;48.764;9.172;2023-02-22T02:33:50;5.28;;;4.50;;
757;SDS011;363;48.764;9.172;2023-02-22T02:36:39;6.53;;;4.63;;
757;SDS011;363;48.764;9.172;2023-02-22T02:41:54;6.32;;;4.70;;
757;SDS011;363;48.764;9.172;2023-02-22T02:44:43;5.38;;;4.60;;
757;SDS011;363;48.764;9.172;2023-02-22T02:47:38;6.13;;;4.78;;
757;SDS011;363;48.764;9.172;2023-02-22T02:50:25;6.05;;;4.65;;
757;SDS011;363;48.764;9.172;2023-02-22T02:52:58;6.90;;;5.63;;
757;SDS011;363;48.764;9.172;2023-02-22T02:55:28;8.88;;;4.63;;
757;SDS011;363;48.764;9.172;2023-02-22T02:57:55;8.57;;;5.10;;
757;SDS011;363;48.764;9.172;2023-02-22T03:00:21;7.23;;;4.53;;
757;SDS011;363;48.764;9.172;2023-02-22T03:03:16;6.25;;;4.65;;
757;SDS011;363;48.764;9.172;2023-02-22T03:08:42;5.75;;;4.68;;
757;SDS011;363;48.764;9.172;2023-02-22T03:11:27;7.30;;;5.28;;
757;SDS011;363;48.764;9.172;2023-02-22T03:14:06;6.57;;;5.03;;
757;SDS011;363;48.764;9.172;2023-02-22T03:19:32;6.68;;;5.40;;
757;SDS011;363;48.764;9.172;2023-02-22T03:22:13;6.18;;;5.47;;
757;SDS011;363;48.764;9.172;2023-02-22T03:24:46;5.55;;;4.75;;
757;SDS011;363;48.764;9.172;2023-02-22T03:27:22;6.53;;;4.95;;
757;SDS011;363;48.764;9.172;2023-02-22T03:29:53;10.50;;;6.93;;
757;SDS011;363;48.764;9.172;2023-02-22T03:32:24;8.35;;;6.38;;
757;SDS011;363;48.764;9.172;2023-02-22T03:35:02;7.88;;;6.28;;
757;SDS011;363;48.764;9.172;2023-02-22T03:37:33;6.40;;;5.47;;
757;SDS011;363;48.764;9.172;2023-02-22T03:40:02;8.27;;;6.40;;
757;SDS011;363;48.764;9.172;2023-02-22T03:42:38;9.15;;;5.55;;
757;SDS011;363;48.764;9.172;2023-02-22T03:45:07;7.03;;;5.40;;
757;SDS011;363;48.764;9.172;2023-02-22T03:47:41;5.95;;;4.97;;
757;SDS011;363;48.764;9.172;2023-02-22T03:52:39;8.77;;;6.28;;
757;SDS011;363;48.764;9.172;2023-02-22T03:55:07;8.60;;;6.30;;
757;SDS011;363;48.764;9.172;2023-02-22T03:57:35;7.65;;;5.97;;
757;SDS011;363;48.764;9.172;2023-02-22T04:00:05;8.25;;;6.43;;
757;SDS011;363;48.764;9.172;2023-02-22T04:02:33;8.38;;;5.97;;
757;SDS011;363;48.764;9.172;2023-02-22T04:04:58;7.82;;;6.32;;
757;SDS011;363;48.764;9.172;2023-02-22T04:07:24;9.90;;;6.05;;
757;SDS011;363;48.764;9.172;2023-02-22T04:09:50;11.20;;;6.10;;
757;SDS011;363;48.764;9.172;2023-02-22T04:12:16;8.70;;;6.60;;
757;SDS011;363;48.764;9.172;2023-02-22T04:14:41;8.20;;;6.87;;
757;SDS011;363;48.764;9.172;2023-02-22T04:17:07;10.70;;;6.63;;
757;SDS011;363;48.764;9.172;2023-02-22T04:19:33;10.00;;;6.50;;
757;SDS011;363;48.764;9.172;2023-02-22T04:21:59;11.03;;;7.60;;
757;SDS011;363;48.764;9.172;2023-02-22T04:24:24;11.13;;;7.80;;
757;SDS011;363;48.764;9.172;2023-02-22T04:26:50;7.70;;;6.50;;
757;SDS011;363;48.764;9.172;2023-02-22T04:29:15;9.50;;;6.60;;
757;SDS011;363;48.764;9.172;2023-02-22T04:31:41;9.43;;;6.90;;
757;SDS011;363;48.764;9.172;2023-02-22T04:34:06;11.40;;;6.87;;
757;SDS011;363;48.764;9.172;2023-02-22T04:36:32;8.47;;;6.37;;
757;SDS011;363;48.764;9.172;2023-02-22T04:38:58;9.53;;;6.83;;
757;SDS011;363;48.764;9.172;2023-02-22T04:41:24;9.75;;;7.00;;
757;SDS011;363;48.764;9.172;2023-02-22T04:43:49;8.83;;;7.03;;
757;SDS011;363;48.764;9.172;2023-02-22T04:46:15;9.93;;;6.50;;
757;SDS011;363;48.764;9.172;2023-02-22T04:48:41;8.93;;;6.47;;
757;SDS011;363;48.764;9.172;2023-02-22T04:51:06;9.83;;;7.60;;
757;SDS011;363;48.764;9.172;2023-02-22T04:53:32;7.57;;;6.77;;
757;SDS011;363;48.764;9.172;2023-02-22T04:55:58;8.27;;;7.10;;
757;SDS011;363;48.764;9.172;2023-02-22T04:58:24;7.93;;;7.13;;
757;SDS011;363;48.764;9.172;2023-02-22T05:00:49;10.10;;;6.83;;
757;SDS011;363;48.764;9.172;2023-02-22T05:03:15;7.93;;;7.13;;
757;SDS011;363;48.764;9.172;2023-02-22T05:05:40;9.67;;;7.60;;
757;SDS011;363;48.764;9.172;2023-02-22T05:08:06;10.67;;;7.90;;
757;SDS011;363;48.764;9.172;2023-02-22T05:10:32;8.83;;;7.93;;
757;SDS011;363;48.764;9.172;2023-02-22T05:12:57;11.03;;;7.93;;
757;SDS011;363;48.764;9.172;2023-02-22T05:15:23;7.33;;;6.40;;
757;SDS011;363;48.764;9.172;2023-02-22T05:17:49;8.55;;;7.65;;
757;SDS011;363;48.764;9.172;2023-02-22T05:20:22;9.07;;;7.00;;
757;SDS011;363;48.764;9.172;2023-02-22T05:22:58;9.07;;;7.28;;
757;SDS011;363;48.764;9.172;2023-02-22T05:25:25;8.38;;;7.15;;
757;SDS011;363;48.764;9.172;2023-02-22T05:27:52;8.30;;;7.50;;
757;SDS011;363;48.764;9.172;2023-02-22T05:30:20;9.52;;;6.90;;
757;SDS011;363;48.764;9.172;2023-02-22T05:32:50;12.10;;;7.40;;
757;SDS011;363;48.764;9.172;2023-02-22T05:35:17;8.05;;;7.15;;
757;SDS011;363;48.764;9.172;2023-02-22T05:37:43;10.13;;;7.95;;
757;SDS011;363;48.764;9.172;2023-02-22T05:40:09;7.70;;;7.00;;
757;SDS011;363;48.764;9.172;2023-02-22T05:42:35;9.43;;;7.30;;
757;SDS011;363;48.764;9.172;2023-02-22T05:45:01;10.77;;;7.60;;
757;SDS011;363;48.764;9.172;2023-02-22T05:47:27;8.43;;;7.53;;
757;SDS011;363;48.764;9.172;2023-02-22T05:49:53;11.70;;;7.30;;
757;SDS011;363;48.764;9.172;2023-02-22T05:52:18;11.90;;;7.83;;
757;SDS011;363;48.764;9.172;2023-02-22T05:54:44;9.82;;;7.38;;
757;SDS011;363;48.764;9.172;2023-02-22T05:57:10;8.10;;;7.00;;
757;SDS011;363;48.764;9.172;2023-02-22T05:59:35;12.30;;;7.43;;
757;SDS011;363;48.764;9.172;2023-02-22T06:02:01;9.60;;;8.10;;
757;SDS011;363;48.764;9.172;2023-02-22T06:04:26;11.40;;;7.73;;
757;SDS011;363;48.764;9.172;2023-02-22T06:06:52;9.20;;;8.20;;
757;SDS011;363;48.764;9.172;2023-02-22T06:09:18;8.20;;;7.10;;
757;SDS011;363;48.764;9.172;2023-02-22T06:11:43;10.03;;;7.17;;
757;SDS011;363;48.764;9.172;2023-02-22T06:14:09;9.07;;;7.50;;
757;SDS011;363;48.764;9.172;2023-02-22T06:16:34;8.83;;;7.37;;
757;SDS011;363;48.764;9.172;2023-02-22T06:19:00;10.03;;;8.27;;
757;SDS011;363;48.764;9.172;2023-02-22T06:21:26;9.77;;;7.30;;
757;SDS011;363;48.764;9.172;2023-02-22T06:23:51;12.17;;;7.83;;
757;SDS011;363;48.764;9.172;2023-02-22T06:26:17;11.80;;;7.30;;
757;SDS011;363;48.764;9.172;2023-02-22T06:28:44;9.63;;;7.47;;
757;SDS011;363;48.764;9.172;2023-02-22T06:31:10;9.90;;;7.82;;
757;SDS011;363;48.764;9.172;2023-02-22T06:33:35;12.07;;;7.80;;
757;SDS011;363;48.764;9.172;2023-02-22T06:36:01;8.30;;;7.50;;
757;SDS011;363;48.764;9.172;2023-02-22T06:38:26;10.30;;;7.80;;
757;SDS011;363;48.764;9.172;2023-02-22T06:40:52;10.80;;;7.63;;
757;SDS011;363;48.764;9.172;2023-02-22T06:43:19;9.40;;;8.40;;
757;SDS011;363;48.764;9.172;2023-02-22T06:45:45;13.98;;;8.18;;
757;SDS011;363;48.764;9.172;2023-02-22T06:48:11;11.63;;;7.10;;
757;SDS011;363;48.764;9.172;2023-02-22T06:50:37;10.25;;;7.80;;
757;SDS011;363;48.764;9.172;2023-02-22T06:53:03;12.30;;;7.93;;
757;SDS011;363;48.764;9.172;2023-02-22T06:55:29;8.80;;;7.73;;
757;SDS011;363;48.764;9.172;2023-02-22T06:57:56;9.50;;;7.20;;
757;SDS011;363;48.764;9.172;2023-02-22T07:00:23;11.20;;;8.75;;
757;SDS011;363;48.764;9.172;2023-02-22T07:02:50;10.90;;;7.18;;
757;SDS011;363;48.764;9.172;2023-02-22T07:05:17;9.30;;;6.65;;
757;SDS011;363;48.764;9.172;2023-02-22T07:07:43;8.50;;;7.57;;
757;SDS011;363;48.764;9.172;2023-02-22T07:10:23;9.80;;;7.70;;
757;SDS011;363;48.764;9.172;2023-02-22T07:12:51;10.23;;;7.45;;
757;SDS011;363;48.764;9.172;2023-02-22T07:15:18;10.25;;;6.68;;
757;SDS011;363;48.764;9.172;2023-02-22T07:17:45;7.93;;;6.93;;
757;SDS011;363;48.764;9.172;2023-02-22T07:20:11;8.90;;;7.60;;
757;SDS011;363;48.764;9.172;2023-02-22T07:22:37;12.00;;;7.90;;
757;SDS011;363;48.764;9.172;2023-02-22T07:25:04;10.50;;;6.65;;
757;SDS011;363;48.764;9.172;2023-02-22T07:27:30;9.00;;;8.00;;
757;SDS011;363;48.764;9.172;2023-02-22T07:29:56;10.40;;;6.93;;
757;SDS011;363;48.764;9.172;2023-02-22T07:32:22;9.23;;;6.93;;
757;SDS011;363;48.764;9.172;2023-02-22T07:34:48;10.70;;;7.33;;
757;SDS011;363;48.764;9.172;2023-02-22T07:37:13;8.87;;;7.70;;
757;SDS011;363;48.764;9.172;2023-02-22T07:39:39;9.30;;;7.73;;
757;SDS011;363;48.764;9.172;2023-02-22T07:42:07;9.98;;;7.65;;
757;SDS011;363;48.764;9.172;2023-02-22T07:44:33;10.67;;;8.00;;
757;SDS011;363;48.764;9.172;2023-02-22T07:46:58;8.87;;;7.43;;
757;SDS011;363;48.764;9.172;2023-02-22T07:49:26;8.45;;;7.63;;
757;SDS011;363;48.764;9.172;2023-02-22T07:51:52;10.60;;;7.60;;
757;SDS011;363;48.764;9.172;2023-02-22T07:54:17;10.27;;;7.40;;
757;SDS011;363;48.764;9.172;2023-02-22T07:56:46;10.03;;;7.67;;
757;SDS011;363;48.764;9.172;2023-02-22T07:59:12;9.60;;;7.60;;
757;SDS011;363;48.764;9.172;2023-02-22T08:01:38;16.65;;;9.32;;
757;SDS011;363;48.764;9.172;2023-02-22T08:04:04;12.27;;;8.37;;
757;SDS011;363;48.764;9.172;2023-02-22T08:06:30;15.13;;;8.13;;
757;SDS011;363;48.764;9.172;2023-02-22T08:08:56;9.60;;;8.60;;
757;SDS011;363;48.764;9.172;2023-02-22T08:11:21;9.00;;;8.07;;
757;SDS011;363;48.764;9.172;2023-02-22T08:13:49;12.38;;;8.77;;
757;SDS011;363;48.764;9.172;2023-02-22T08:16:14;9.40;;;7.90;;
757;SDS011;363;48.764;9.172;2023-02-22T08:18:40;15.63;;;12.13;;
757;SDS011;363;48.764;9.172;2023-02-22T08:21:06;14.70;;;9.60;;
757;SDS011;363;48.764;9.172;2023-02-22T08:23:31;13.77;;;8.70;;
757;SDS011;363;48.764;9.172;2023-02-22T08:26:04;11.87;;;9.63;;
757;SDS011;363;48.764;9.172;2023-02-22T08:28:33;11.65;;;9.07;;
757;SDS011;363;48.764;9.172;2023-02-22T08:30:59;9.90;;;8.80;;
757;SDS011;363;48.764;9.172;2023-02-22T08:33:25;11.20;;;8.63;;
757;SDS011;363;48.764;9.172;2023-02-22T08:35:50;11.43;;;9.57;;
757;SDS011;363;48.764;9.172;2023-02-22T08:38:19;14.40;;;9.60;;
757;SDS011;363;48.764;9.172;2023-02-22T08:40:50;12.55;;;11.02;;
757;SDS011;363;48.764;9.172;2023-02-22T08:43:16;12.43;;;9.83;;
757;SDS011;363;48.764;9.172;2023-02-22T08:45:43;45.92;;;35.63;;
757;SDS011;363;48.764;9.172;2023-02-22T08:48:10;11.18;;;9.25;;
757;SDS011;363;48.764;9.172;2023-02-22T08:50:36;9.85;;;8.85;;
757;SDS011;363;48.764;9.172;2023-02-22T08:53:03;11.80;;;8.90;;
757;SDS011;363;48.764;9.172;2023-02-22T08:55:30;10.20;;;9.13;;
757;SDS011;363;48.764;9.172;2023-02-22T08:57:58;13.93;;;9.45;;
757;SDS011;363;48.764;9.172;2023-02-22T09:00:27;10.50;;;8.60;;
757;SDS011;363;48.764;9.172;2023-02-22T09:02:57;11.15;;;8.10;;
757;SDS011;363;48.764;9.172;2023-02-22T09:05:33;9.57;;;8.57;;
757;SDS011;363;48.764;9.172;2023-02-22T09:07:59;9.53;;;8.53;;
757;SDS011;363;48.764;9.172;2023-02-22T09:10:26;10.35;;;8.55;;
757;SDS011;363;48.764;9.172;2023-02-22T09:12:55;13.55;;;9.35;;
757;SDS011;363;48.764;9.172;2023-02-22T09:15:22;16.58;;;12.90;;
757;SDS011;363;48.764;9.172;2023-02-22T09:17:49;19.42;;;9.77;;
757;SDS011;363;48.764;9.172;2023-02-22T09:20:15;10.37;;;9.00;;
757;SDS011;363;48.764;9.172;2023-02-22T09:22:45;10.68;;;9.60;;
757;SDS011;363;48.764;9.172;2023-02-22T09:25:12;12.10;;;9.15;;
757;SDS011;363;48.764;9.172;2023-02-22T09:27:37;12.80;;;10.53;;
757;SDS011;363;48.764;9.172;2023-02-22T09:30:04;14.48;;;9.40;;
757;SDS011;363;48.764;9.172;2023-02-22T09:32:30;13.73;;;10.15;;
757;SDS011;363;48.764;9.172;2023-02-22T09:34:56;10.57;;;9.47;;
757;SDS011;363;48.764;9.172;2023-02-22T09:37:21;10.23;;;8.70;;
757;SDS011;363;48.764;9.172;2023-02-22T09:39:47;11.50;;;9.63;;
757;SDS011;363;48.764;9.172;2023-02-22T09:45:15;12.57;;;9.60;;
757;SDS011;363;48.764;9.172;2023-02-22T09:47:54;10.68;;;8.80;;
757;SDS011;363;48.764;9.172;2023-02-22T09:50:23;9.38;;;8.27;;
757;SDS011;363;48.764;9.172;2023-02-22T09:55:53;9.57;;;8.32;;
757;SDS011;363;48.764;9.172;2023-02-22T09:58:24;9.02;;;8.18;;
757;SDS011;363;48.764;9.172;2023-02-22T10:01:09;11.45;;;7.65;;
757;SDS011;363;48.764;9.172;2023-02-22T10:06:16;12.80;;;8.85;;
757;SDS011;363;48.764;9.172;2023-02-22T10:08:45;8.38;;;7.47;;
757;SDS011;363;48.764;9.172;2023-02-22T10:14:11;10.63;;;6.20;;
757;SDS011;363;48.764;9.172;2023-02-22T10:25:19;8.73;;;7.32;;
757;SDS011;363;48.764;9.172;2023-02-22T10:27:53;8.10;;;6.80;;
757;SDS011;363;48.764;9.172;2023-02-22T10:33:04;12.05;;;10.95;;
757;SDS011;363;48.764;9.172;2023-02-22T10:35:36;14.32;;;8.25;;
757;SDS011;363;48.764;9.172;2023-02-22T10:40:40;8.40;;;7.50;;
757;SDS011;363;48.764;9.172;2023-02-22T10:43:09;9.98;;;7.32;;
757;SDS011;363;48.764;9.172;2023-02-22T10:45:35;10.77;;;7.70;;
757;SDS011;363;48.764;9.172;2023-02-22T10:48:05;7.77;;;6.97;;
757;SDS011;363;48.764;9.172;2023-02-22T10:50:33;8.52;;;7.55;;
757;SDS011;363;48.764;9.172;2023-02-22T10:53:00;11.25;;;7.82;;
757;SDS011;363;48.764;9.172;2023-02-22T10:55:26;11.90;;;7.77;;
757;SDS011;363;48.764;9.172;2023-02-22T10:57:58;8.07;;;7.03;;
757;SDS011;363;48.764;9.172;2023-02-22T11:00:35;8.48;;;7.53;;
757;SDS011;363;48.764;9.172;2023-02-22T11:10:39;10.95;;;9.70;;
757;SDS011;363;48.764;9.172;2023-02-22T11:18:44;11.57;;;8.75;;
757;SDS011;363;48.764;9.172;2023-02-22T11:21:11;13.02;;;9.20;;
757;SDS011;363;48.764;9.172;2023-02-22T11:23:38;9.60;;;8.07;;
757;SDS011;363;48.764;9.172;2023-02-22T11:26:07;12.60;;;9.48;;
757;SDS011;363;48.764;9.172;2023-02-22T11:28:35;11.38;;;10.05;;
757;SDS011;363;48.764;9.172;2023-02-22T11:31:14;10.30;;;8.23;;
757;SDS011;363;48.764;9.172;2023-02-22T11:33:46;11.20;;;9.20;;
757;SDS011;363;48.764;9.172;2023-02-22T11:39:05;9.00;;;7.70;;
757;SDS011;363;48.764;9.172;2023-02-22T11:41:51;10.00;;;7.65;;
757;SDS011;363;48.764;9.172;2023-02-22T11:44:26;9.52;;;8.52;;
757;SDS011;363;48.764;9.172;2023-02-22T11:46:54;8.88;;;8.00;;
757;SDS011;363;48.764;9.172;2023-02-22T11:49:30;9.75;;;8.80;;
757;SDS011;363;48.764;9.172;2023-02-22T11:52:04;9.23;;;8.25;;
757;SDS011;363;48.764;9.172;2023-02-22T11:55:12;10.30;;;9.30;;
757;SDS011;363;48.764;9.172;2023-02-22T12:00:43;11.27;;;9.25;;
757;SDS011;363;48.764;9.172;2023-02-22T12:09:05;11.75;;;10.23;;
757;SDS011;363;48.764;9.172;2023-02-22T12:19:34;9.60;;;8.00;;
757;SDS011;363;48.764;9.172;2023-02-22T12:22:06;12.82;;;9.65;;
757;SDS011;363;48.764;9.172;2023-02-22T12:25:03;10.70;;;9.50;;
757;SDS011;363;48.764;9.172;2023-02-22T12:27:35;15.07;;;9.73;;
757;SDS011;363;48.764;9.172;2023-02-22T12:33:13;11.15;;;9.13;;
757;SDS011;363;48.764;9.172;2023-02-22T12:35:44;11.43;;;9.50;;
757;SDS011;363;48.764;9.172;2023-02-22T12:38:38;12.30;;;9.18;;
757;SDS011;363;48.764;9.172;2023-02-22T12:41:21;12.95;;;9.30;;
757;SDS011;363;48.764;9.172;2023-02-22T12:43:59;16.65;;;9.10;;
757;SDS011;363;48.764;9.172;2023-02-22T12:46:35;9.60;;;8.20;;
757;SDS011;363;48.764;9.172;2023-02-22T12:52:08;12.18;;;10.18;;
757;SDS011;363;48.764;9.172;2023-02-22T12:54:44;10.07;;;8.63;;
757;SDS011;363;48.764;9.172;2023-02-22T13:00:10;12.73;;;11.00;;
757;SDS011;363;48.764;9.172;2023-02-22T13:02:54;12.63;;;9.88;;
757;SDS011;363;48.764;9.172;2023-02-22T13:05:24;11.02;;;9.52;;
757;SDS011;363;48.764;9.172;2023-02-22T13:13:14;10.48;;;9.35;;
757;SDS011;363;48.764;9.172;2023-02-22T13:18:51;10.45;;;9.35;;
757;SDS011;363;48.764;9.172;2023-02-22T13:22:04;9.95;;;8.95;;
757;SDS011;363;48.764;9.172;2023-02-22T13:24:14;9.63;;;8.57;;
757;SDS011;363;48.764;9.172;2023-02-22T13:26:47;9.00;;;8.10;;
757;SDS011;363;48.764;9.172;2023-02-22T13:29:26;9.40;;;8.20;;
757;SDS011;363;48.764;9.172;2023-02-22T13:32:07;12.18;;;9.13;;
757;SDS011;363;48.764;9.172;2023-02-22T13:34:50;9.85;;;8.13;;
757;SDS011;363;48.764;9.172;2023-02-22T13:42:40;9.73;;;8.43;;
757;SDS011;363;48.764;9.172;2023-02-22T13:53:43;11.70;;;10.50;;
757;SDS011;363;48.764;9.172;2023-02-22T13:56:21;12.93;;;11.57;;
757;SDS011;363;48.764;9.172;2023-02-22T13:58:50;11.65;;;9.80;;
757;SDS011;363;48.764;9.172;2023-02-22T14:06:53;9.48;;;8.48;;
757;SDS011;363;48.764;9.172;2023-02-22T14:12:09;10.77;;;9.35;;
757;SDS011;363;48.764;9.172;2023-02-22T14:17:45;11.02;;;9.93;;
757;SDS011;363;48.764;9.172;2023-02-22T14:22:43;10.80;;;9.80;;
757;SDS011;363;48.764;9.172;2023-02-22T14:25:28;10.38;;;9.38;;
757;SDS011;363;48.764;9.172;2023-02-22T14:27:58;13.65;;;9.82;;
757;SDS011;363;48.764;9.172;2023-02-22T14:30:29;11.10;;;8.95;;
757;SDS011;363;48.764;9.172;2023-02-22T14:32:56;11.10;;;10.00;;
757;SDS011;363;48.764;9.172;2023-02-22T14:35:24;11.30;;;10.15;;
757;SDS011;363;48.764;9.172;2023-02-22T14:37:54;10.63;;;9.52;;
757;SDS011;363;48.764;9.172;2023-02-22T14:40:28;11.75;;;8.82;;
757;SDS011;363;48.764;9.172;2023-02-22T14:45:28;12.02;;;10.30;;
757;SDS011;363;48.764;9.172;2023-02-22T14:48:19;10.88;;;9.40;;
757;SDS011;363;48.764;9.172;2023-02-22T14:51:00;11.50;;;10.15;;
757;SDS011;363;48.764;9.172;2023-02-22T14:58:52;14.82;;;10.23;;
757;SDS011;363;48.764;9.172;2023-02-22T15:01:33;11.25;;;9.05;;
757;SDS011;363;48.764;9.172;2023-02-22T15:06:51;11.98;;;10.38;;
757;SDS011;363;48.764;9.172;2023-02-22T15:09:20;12.48;;;10.70;;
757;SDS011;363;48.764;9.172;2023-02-22T15:14:29;11.10;;;9.77;;
757;SDS011;363;48.764;9.172;2023-02-22T15:17:18;11.00;;;9.82;;
757;SDS011;363;48.764;9.172;2023-02-22T15:19:46;12.88;;;10.50;;
757;SDS011;363;48.764;9.172;2023-02-22T15:22:20;13.35;;;9.65;;
757;SDS011;363;48.764;9.172;2023-02-22T15:24:59;11.95;;;10.75;;
757;SDS011;363;48.764;9.172;2023-02-22T15:27:26;14.10;;;11.95;;
757;SDS011;363;48.764;9.172;2023-02-22T15:29:57;11.32;;;10.18;;
757;SDS011;363;48.764;9.172;2023-02-22T15:32:29;11.65;;;10.35;;
757;SDS011;363;48.764;9.172;2023-02-22T15:35:13;12.32;;;10.40;;
757;SDS011;363;48.764;9.172;2023-02-22T15:37:38;13.18;;;10.40;;
757;SDS011;363;48.764;9.172;2023-02-22T15:40:05;15.33;;;11.10;;
757;SDS011;363;48.764;9.172;2023-02-22T15:42:48;13.63;;;10.98;;
757;SDS011;363;48.764;9.172;2023-02-22T15:45:22;14.60;;;11.00;;
757;SDS011;363;48.764;9.172;2023-02-22T15:47:49;12.98;;;10.68;;
757;SDS011;363;48.764;9.172;2023-02-22T15:50:23;11.45;;;10.23;;
757;SDS011;363;48.764;9.172;2023-02-22T15:55:33;12.63;;;10.33;;
757;SDS011;363;48.764;9.172;2023-02-22T15:58:09;11.52;;;10.10;;
757;SDS011;363;48.764;9.172;2023-02-22T16:00:46;14.02;;;10.95;;
757;SDS011;363;48.764;9.172;2023-02-22T16:03:21;12.38;;;11.07;;
757;SDS011;363;48.764;9.172;2023-02-22T16:05:49;15.95;;;11.30;;
757;SDS011;363;48.764;9.172;2023-02-22T16:08:20;13.85;;;10.93;;
757;SDS011;363;48.764;9.172;2023-02-22T16:11:07;12.68;;;11.20;;
757;SDS011;363;48.764;9.172;2023-02-22T16:13:37;14.00;;;11.48;;
757;SDS011;363;48.764;9.172;2023-02-22T16:18:41;13.82;;;12.32;;
757;SDS011;363;48.764;9.172;2023-02-22T16:21:07;13.30;;;11.90;;
757;SDS011;363;48.764;9.172;2023-02-22T16:31:25;13.32;;;11.98;;
757;SDS011;363;48.764;9.172;2023-02-22T16:33:53;13.90;;;11.40;;
757;SDS011;363;48.764;9.172;2023-02-22T16:36:22;13.30;;;11.70;;
757;SDS011;363;48.764;9.172;2023-02-22T16:39:01;14.73;;;11.73;;
757;SDS011;363;48.764;9.172;2023-02-22T16:41:31;13.32;;;11.55;;
757;SDS011;363;48.764;9.172;2023-02-22T16:43:57;13.57;;;11.50;;
757;SDS011;363;48.764;9.172;2023-02-22T16:46:22;14.10;;;11.67;;
757;SDS011;363;48.764;9.172;2023-02-22T16:48:48;16.37;;;12.10;;
757;SDS011;363;48.764;9.172;2023-02-22T16:53:42;11.82;;;10.65;;
757;SDS011;363;48.764;9.172;2023-02-22T16:56:08;16.88;;;13.57;;
757;SDS011;363;48.764;9.172;2023-02-22T16:58:39;14.82;;;12.68;;
757;SDS011;363;48.764;9.172;2023-02-22T17:01:06;14.70;;;11.73;;
757;SDS011;363;48.764;9.172;2023-02-22T17:03:32;15.65;;;12.95;;
757;SDS011;363;48.764;9.172;2023-02-22T17:05:57;17.70;;;13.00;;
757;SDS011;363;48.764;9.172;2023-02-22T17:08:23;15.00;;;12.27;;
757;SDS011;363;48.764;9.172;2023-02-22T17:10:49;14.97;;;11.97;;
757;SDS011;363;48.764;9.172;2023-02-22T17:13:20;18.20;;;12.90;;
757;SDS011;363;48.764;9.172;2023-02-22T17:15:47;13.85;;;11.60;;
757;SDS011;363;48.764;9.172;2023-02-22T17:18:14;14.83;;;12.43;;
757;SDS011;363;48.764;9.172;2023-02-22T17:20:41;17.13;;;12.52;;
757;SDS011;363;48.764;9.172;2023-02-22T17:23:09;15.85;;;12.73;;
757;SDS011;363;48.764;9.172;2023-02-22T17:25:46;17.00;;;11.23;;
757;SDS011;363;48.764;9.172;2023-02-22T17:28:15;17.25;;;12.25;;
757;SDS011;363;48.764;9.172;2023-02-22T17:30:40;19.07;;;12.13;;
757;SDS011;363;48.764;9.172;2023-02-22T17:33:09;19.33;;;12.02;;
757;SDS011;363;48.764;9.172;2023-02-22T17:35:39;17.08;;;12.95;;
757;SDS011;363;48.764;9.172;2023-02-22T17:38:05;14.13;;;11.60;;
757;SDS011;363;48.764;9.172;2023-02-22T17:40:31;15.27;;;13.07;;
757;SDS011;363;48.764;9.172;2023-02-22T17:42:58;15.98;;;13.20;;
757;SDS011;363;48.764;9.172;2023-02-22T17:45:25;16.60;;;12.65;;
757;SDS011;363;48.764;9.172;2023-02-22T17:47:51;14.40;;;12.40;;
757;SDS011;363;48.764;9.172;2023-02-22T17:50:18;15.13;;;13.10;;
757;SDS011;363;48.764;9.172;2023-02-22T17:52:45;13.85;;;12.35;;
757;SDS011;363;48.764;9.172;2023-02-22T17:55:11;16.60;;;12.07;;
757;SDS011;363;48.764;9.172;2023-02-22T17:57:38;15.20;;;11.65;;
757;SDS011;363;48.764;9.172;2023-02-22T18:00:08;19.65;;;12.07;;
757;SDS011;363;48.764;9.172;2023-02-22T18:02:47;17.70;;;14.02;;
757;SDS011;363;48.764;9.172;2023-02-22T18:05:13;17.40;;;14.20;;
757;SDS011;363;48.764;9.172;2023-02-22T18:07:40;17.77;;;13.60;;
757;SDS011;363;48.764;9.172;2023-02-22T18:10:06;17.42;;;14.18;;
757;SDS011;363;48.764;9.172;2023-02-22T18:12:39;14.98;;;13.30;;
757;SDS011;363;48.764;9.172;2023-02-22T18:15:06;14.80;;;11.95;;
757;SDS011;363;48.764;9.172;2023-02-22T18:17:35;20.92;;;11.30;;
757;SDS011;363;48.764;9.172;2023-02-22T18:20:01;12.10;;;10.90;;
757;SDS011;363;48.764;9.172;2023-02-22T18:22:35;14.43;;;12.25;;
757;SDS011;363;48.764;9.172;2023-02-22T18:25:07;14.95;;;12.10;;